Time;durP1;ratioP1;P1;durP2;ratioP2;P2;SDS_P1;SDS_P2;PMS_P1;PMS_P2;Temp;Humidity;BMP_temperature;BMP_pressure;BME280_temperature;BME280_humidity;BME280_pressure;Samples;Min_cycle;Max_cycle;Signal;HPM_P1;HPM_P2
2022/03/29 00:00:01;;;;;;;11.80;9.20;;;12.30;55.90;;;;;;5014608;28;20443;-50
2022/03/29 00:02:28;;;;;;;14.67;9.93;;;12.20;56.00;;;;;;5014090;28;20934;-50
2022/03/29 00:04:57;;;;;;;12.37;10.17;;;12.20;56.30;;;;;;5014087;28;20546;-50
2022/03/29 00:07:24;;;;;;;13.43;10.00;;;12.10;56.30;;;;;;5013993;28;20505;-50
2022/03/29 00:09:53;;;;;;;14.63;9.80;;;12.10;56.30;;;;;;5014051;28;20475;-50
2022/03/29 00:12:20;;;;;;;12.77;9.93;;;12.00;56.50;;;;;;5014277;28;20447;-50
2022/03/29 00:14:47;;;;;;;13.03;9.70;;;12.10;56.50;;;;;;5013863;28;20455;-50
2022/03/29 00:17:14;;;;;;;12.77;9.57;;;12.10;56.30;;;;;;5014251;28;20467;-50
2022/03/29 00:19:41;;;;;;;18.17;9.60;;;12.00;56.10;;;;;;5014139;28;20454;-50
2022/03/29 00:22:08;;;;;;;12.47;9.10;;;11.90;56.10;;;;;;5013960;28;20450;-50
2022/03/29 00:24:35;;;;;;;12.60;11.13;;;11.90;56.20;;;;;;5014011;28;20537;-50
2022/03/29 00:27:05;;;;;;;14.97;9.50;;;11.80;56.30;;;;;;5013806;28;20938;-50
2022/03/29 00:29:32;;;;;;;14.17;10.13;;;11.80;56.20;;;;;;5013952;28;20458;-50
2022/03/29 00:32:00;;;;;;;15.23;8.80;;;11.80;56.70;;;;;;5014036;28;20451;-50
2022/03/29 00:34:27;;;;;;;12.67;9.10;;;11.80;56.50;;;;;;5013988;28;20447;-50
2022/03/29 00:36:54;;;;;;;13.57;9.30;;;11.90;57.00;;;;;;5013690;28;20561;-50
2022/03/29 00:39:21;;;;;;;13.87;10.17;;;12.00;57.00;;;;;;5013704;28;20506;-50
2022/03/29 00:41:48;;;;;;;14.20;8.70;;;12.00;56.60;;;;;;5013457;28;20816;-50
2022/03/29 00:44:17;;;;;;;13.93;8.67;;;11.90;56.60;;;;;;5013590;28;20534;-51
2022/03/29 00:46:47;;;;;;;12.57;8.93;;;11.70;56.80;;;;;;5013441;28;20487;-50
2022/03/29 00:49:14;;;;;;;12.93;9.70;;;11.80;56.60;;;;;;5013859;28;20459;-50
2022/03/29 00:51:41;;;;;;;10.83;8.17;;;11.80;57.20;;;;;;5013285;28;20461;-50
2022/03/29 00:54:08;;;;;;;13.80;9.27;;;11.80;56.50;;;;;;5013450;28;20458;-50
2022/03/29 00:56:35;;;;;;;16.07;9.20;;;11.80;56.60;;;;;;5013396;28;20457;-50
2022/03/29 00:59:02;;;;;;;12.17;10.40;;;11.80;56.80;;;;;;5013658;28;20458;-50
2022/03/29 01:01:31;;;;;;;13.63;9.70;;;11.80;57.30;;;;;;5013285;28;20522;-50
2022/03/29 01:04:00;;;;;;;12.70;9.10;;;11.80;57.90;;;;;;5013401;28;20447;-50
2022/03/29 01:06:27;;;;;;;13.13;9.90;;;11.80;57.40;;;;;;5013117;28;20519;-50
2022/03/29 01:08:54;;;;;;;12.93;9.97;;;11.80;57.20;;;;;;5013111;28;20478;-50
2022/03/29 01:11:21;;;;;;;11.20;8.40;;;11.80;57.30;;;;;;5013304;28;20458;-51
2022/03/29 01:13:48;;;;;;;11.87;9.83;;;11.70;58.10;;;;;;5013474;28;20561;-50
2022/03/29 01:19:07;;;;;;;15.60;10.07;;;11.60;58.30;;;;;;5013321;28;20769;-50
2022/03/29 01:21:38;;;;;;;12.77;9.20;;;11.70;58.30;;;;;;5013204;28;20946;-50
2022/03/29 01:24:11;;;;;;;15.50;8.93;;;11.70;58.60;;;;;;5013575;28;20461;-50
2022/03/29 01:26:39;;;;;;;12.20;9.23;;;11.70;58.90;;;;;;5012936;28;20872;-50
2022/03/29 01:29:08;;;;;;;14.63;9.50;;;11.70;58.80;;;;;;5013365;28;20786;-50
2022/03/29 01:31:36;;;;;;;17.70;11.50;;;11.60;58.80;;;;;;5013444;28;20462;-50
2022/03/29 01:34:05;;;;;;;11.90;9.70;;;11.60;59.20;;;;;;5013010;28;20451;-50
2022/03/29 01:36:33;;;;;;;13.03;9.27;;;11.50;58.70;;;;;;5012934;28;20533;-50
2022/03/29 01:39:00;;;;;;;10.73;9.00;;;11.50;58.50;;;;;;5013435;28;20438;-50
2022/03/29 01:41:30;;;;;;;14.10;9.73;;;11.50;59.50;;;;;;5013233;28;20466;-50
2022/03/29 01:43:59;;;;;;;12.20;9.20;;;11.50;59.70;;;;;;5012964;28;20441;-50
2022/03/29 01:46:26;;;;;;;14.53;9.37;;;11.50;59.90;;;;;;5012789;28;20462;-50
2022/03/29 01:48:54;;;;;;;11.43;9.13;;;11.40;60.10;;;;;;5013232;28;20502;-50
2022/03/29 01:51:21;;;;;;;12.47;10.10;;;11.40;60.10;;;;;;5013167;28;20443;-50
2022/03/29 01:53:54;;;;;;;14.33;11.33;;;11.40;60.80;;;;;;5013023;28;20490;-50
2022/03/29 01:56:21;;;;;;;12.00;9.03;;;11.30;61.50;;;;;;5013258;28;20435;-50
2022/03/29 01:58:50;;;;;;;11.50;9.53;;;11.40;60.50;;;;;;5013095;28;20463;-50
2022/03/29 02:01:17;;;;;;;14.53;9.90;;;11.30;61.10;;;;;;5014257;28;20454;-50
2022/03/29 02:03:44;;;;;;;17.13;10.77;;;11.30;61.10;;;;;;5016738;28;20584;-50
2022/03/29 02:06:11;;;;;;;16.10;10.13;;;11.30;61.30;;;;;;5016567;28;20445;-50
2022/03/29 02:08:38;;;;;;;11.40;8.63;;;11.20;60.80;;;;;;5015126;28;20499;-50
2022/03/29 02:11:09;;;;;;;12.30;9.90;;;11.10;61.30;;;;;;5016542;28;20446;-50
2022/03/29 02:13:36;;;;;;;12.87;8.57;;;11.00;61.30;;;;;;5016376;28;20949;-50
2022/03/29 02:16:05;;;;;;;15.33;9.57;;;11.20;61.70;;;;;;5016062;28;21044;-50
2022/03/29 02:18:32;;;;;;;14.53;9.63;;;11.30;62.40;;;;;;5016343;28;20537;-50
2022/03/29 02:20:59;;;;;;;12.20;9.20;;;11.40;61.70;;;;;;5016089;28;20457;-50
2022/03/29 02:23:27;;;;;;;15.27;9.77;;;11.50;61.20;;;;;;5016275;28;20530;-50
2022/03/29 02:25:54;;;;;;;12.00;10.10;;;11.40;62.10;;;;;;5016265;28;20458;-50
2022/03/29 02:28:21;;;;;;;11.20;9.93;;;11.40;61.20;;;;;;5015794;28;20494;-50
2022/03/29 02:30:48;;;;;;;12.20;8.93;;;11.30;62.20;;;;;;5016148;28;20473;-50
2022/03/29 02:33:17;;;;;;;10.57;8.23;;;11.40;61.80;;;;;;5016031;28;20820;-50
2022/03/29 02:35:44;;;;;;;20.23;10.60;;;11.30;61.90;;;;;;5016105;28;20451;-50
2022/03/29 02:38:12;;;;;;;18.70;10.57;;;11.30;61.30;;;;;;5015996;28;20573;-50
2022/03/29 02:40:40;;;;;;;18.00;10.70;;;11.30;61.50;;;;;;5015952;28;20451;-50
2022/03/29 02:43:07;;;;;;;12.13;10.30;;;11.30;62.10;;;;;;5016023;28;20446;-50
2022/03/29 02:45:34;;;;;;;13.33;9.27;;;11.30;62.60;;;;;;5015835;28;20453;-49
2022/03/29 02:48:01;;;;;;;13.37;9.20;;;11.30;62.80;;;;;;5015336;28;20493;-49
2022/03/29 02:50:30;;;;;;;12.50;9.83;;;11.30;62.60;;;;;;5015733;28;20457;-50
2022/03/29 02:52:59;;;;;;;13.00;9.63;;;11.30;62.90;;;;;;5015607;28;20458;-50
2022/03/29 02:55:27;;;;;;;10.83;9.83;;;11.20;62.40;;;;;;5015443;28;20505;-50
2022/03/29 02:57:55;;;;;;;22.27;9.50;;;11.20;62.40;;;;;;5015242;28;20599;-50
2022/03/29 03:00:22;;;;;;;16.13;9.37;;;11.20;62.00;;;;;;5015477;28;20443;-49
2022/03/29 03:02:50;;;;;;;15.90;10.20;;;11.20;62.60;;;;;;5015554;28;20458;-50
2022/03/29 03:05:19;;;;;;;11.10;9.83;;;11.30;63.20;;;;;;5015548;28;20450;-50
2022/03/29 03:07:49;;;;;;;13.60;11.07;;;11.30;62.60;;;;;;5015579;28;20493;-50
2022/03/29 03:10:16;;;;;;;11.63;9.27;;;11.30;62.50;;;;;;5014935;28;20479;-50
2022/03/29 03:12:45;;;;;;;16.07;10.57;;;11.20;60.80;;;;;;5014935;28;20455;-50
2022/03/29 03:15:15;;;;;;;14.87;9.57;;;11.10;60.90;;;;;;5015441;28;20451;-50
2022/03/29 03:17:43;;;;;;;17.43;10.27;;;11.00;61.30;;;;;;5014869;28;20459;-50
2022/03/29 03:20:10;;;;;;;12.53;10.00;;;11.00;61.20;;;;;;5014916;28;20538;-50
2022/03/29 03:22:39;;;;;;;10.77;9.70;;;10.90;61.10;;;;;;5015269;28;20451;-50
2022/03/29 03:25:09;;;;;;;16.10;9.23;;;11.00;61.20;;;;;;5015204;28;20450;-50
2022/03/29 03:27:36;;;;;;;16.60;10.60;;;11.00;61.70;;;;;;5015113;28;20486;-50
2022/03/29 03:30:04;;;;;;;13.07;10.10;;;11.10;62.60;;;;;;5014722;28;20451;-50
2022/03/29 03:32:32;;;;;;;12.90;9.77;;;11.10;61.40;;;;;;5014916;28;20895;-50
2022/03/29 03:34:59;;;;;;;14.20;9.80;;;11.10;60.70;;;;;;5014568;28;20447;-50
2022/03/29 03:37:27;;;;;;;14.70;9.87;;;11.10;60.40;;;;;;5014632;28;20478;-50
2022/03/29 03:39:54;;;;;;;12.97;9.77;;;11.10;62.20;;;;;;5014612;28;20451;-50
2022/03/29 03:42:23;;;;;;;12.63;9.90;;;11.10;62.00;;;;;;5014872;28;20451;-50
2022/03/29 03:44:51;;;;;;;10.73;8.73;;;11.10;62.80;;;;;;5014665;28;20541;-50
2022/03/29 03:47:18;;;;;;;12.43;10.03;;;11.00;62.70;;;;;;5014341;28;20467;-50
2022/03/29 03:49:45;;;;;;;14.40;10.17;;;11.00;63.00;;;;;;5014624;28;20458;-50
2022/03/29 03:52:12;;;;;;;14.10;10.00;;;11.00;60.70;;;;;;5014143;28;20451;-50
2022/03/29 03:54:39;;;;;;;13.87;10.70;;;10.90;61.30;;;;;;5014333;28;20956;-50
2022/03/29 03:57:07;;;;;;;15.50;9.70;;;10.80;62.90;;;;;;5014110;28;20970;-50
2022/03/29 03:59:35;;;;;;;12.47;9.97;;;10.80;62.50;;;;;;5014444;28;20451;-50
2022/03/29 04:02:03;;;;;;;14.27;10.50;;;10.90;60.30;;;;;;5014548;28;20461;-50
2022/03/29 04:04:30;;;;;;;13.70;10.43;;;10.70;60.10;;;;;;5014150;28;20505;-50
2022/03/29 04:06:58;;;;;;;13.07;10.70;;;10.80;60.10;;;;;;5014132;28;20501;-50
2022/03/29 04:09:25;;;;;;;14.30;10.53;;;10.80;59.30;;;;;;5013880;28;20498;-51
2022/03/29 04:11:52;;;;;;;11.60;10.07;;;10.80;58.80;;;;;;5014451;28;20866;-51
2022/03/29 04:14:19;;;;;;;14.77;9.93;;;10.70;67.60;;;;;;5013930;28;20979;-51
2022/03/29 04:16:48;;;;;;;14.30;10.57;;;10.50;65.90;;;;;;5014107;28;20545;-50
2022/03/29 04:19:15;;;;;;;17.40;11.40;;;10.60;64.00;;;;;;5013867;28;20458;-50
2022/03/29 04:21:42;;;;;;;15.10;10.47;;;10.60;61.60;;;;;;5014015;28;20457;-50
2022/03/29 04:24:10;;;;;;;14.47;11.40;;;10.70;61.50;;;;;;5013246;28;20453;-50
2022/03/29 04:26:37;;;;;;;13.63;10.90;;;10.60;61.00;;;;;;5013724;28;20934;-50
2022/03/29 04:29:04;;;;;;;14.10;9.93;;;10.60;60.90;;;;;;5013618;28;20518;-52
2022/03/29 04:31:31;;;;;;;14.73;11.37;;;10.60;60.90;;;;;;5013941;28;20489;-50
2022/03/29 04:34:00;;;;;;;15.20;10.90;;;10.50;62.50;;;;;;5013965;28;20553;-50
2022/03/29 04:36:27;;;;;;;14.13;11.00;;;10.40;69.40;;;;;;5013670;28;20475;-50
2022/03/29 04:38:57;;;;;;;13.27;11.87;;;10.30;59.30;;;;;;5013505;28;20467;-50
2022/03/29 04:41:24;;;;;;;14.50;11.87;;;10.40;59.30;;;;;;5013845;28;20457;-50
2022/03/29 04:43:52;;;;;;;14.93;11.20;;;10.40;59.20;;;;;;5013380;28;20454;-50
2022/03/29 04:46:19;;;;;;;16.90;10.23;;;10.40;59.60;;;;;;5013664;28;20501;-50
2022/03/29 04:48:46;;;;;;;15.70;11.57;;;10.10;59.40;;;;;;5013816;28;20910;-50
2022/03/29 04:51:15;;;;;;;11.93;10.70;;;9.90;61.30;;;;;;5013366;28;20451;-50
2022/03/29 04:53:42;;;;;;;18.13;11.87;;;10.00;59.90;;;;;;5013429;28;20458;-49
2022/03/29 04:56:09;;;;;;;12.70;10.10;;;10.20;61.60;;;;;;5013665;28;20451;-50
2022/03/29 04:58:36;;;;;;;14.07;12.63;;;10.20;61.80;;;;;;5013413;28;20463;-49
2022/03/29 05:01:04;;;;;;;12.20;10.50;;;10.30;61.60;;;;;;5013225;28;20942;-49
2022/03/29 05:03:33;;;;;;;14.57;11.17;;;10.20;61.90;;;;;;5013429;28;20546;-50
2022/03/29 05:06:00;;;;;;;15.23;11.33;;;10.20;62.00;;;;;;5013439;28;20453;-50
2022/03/29 05:08:28;;;;;;;13.97;10.33;;;10.10;62.30;;;;;;5013465;28;20536;-50
2022/03/29 05:10:56;;;;;;;19.60;11.87;;;10.20;63.00;;;;;;5013191;28;20978;-50
2022/03/29 05:13:23;;;;;;;21.53;10.17;;;10.20;63.10;;;;;;5013714;28;20454;-50
2022/03/29 05:15:50;;;;;;;14.83;10.10;;;10.10;63.70;;;;;;5013305;28;20585;-50
2022/03/29 05:18:17;;;;;;;16.00;11.83;;;10.10;63.60;;;;;;5013498;28;20896;-50
2022/03/29 05:20:44;;;;;;;10.37;8.73;;;10.30;65.00;;;;;;5013175;28;20451;-50
2022/03/29 05:23:11;;;;;;;21.53;11.10;;;10.00;64.70;;;;;;5012997;28;20542;-50
2022/03/29 05:25:40;;;;;;;15.30;11.37;;;10.00;64.50;;;;;;5013118;28;20458;-50
2022/03/29 05:28:09;;;;;;;15.23;10.70;;;10.00;64.20;;;;;;5012934;28;20989;-50
2022/03/29 05:30:36;;;;;;;16.00;11.30;;;10.00;64.30;;;;;;5013072;28;20516;-49
2022/03/29 05:33:04;;;;;;;15.70;10.20;;;10.00;65.60;;;;;;5012782;28;20457;-52
2022/03/29 05:35:33;;;;;;;18.43;11.90;;;10.00;65.00;;;;;;5013808;28;20461;-50
2022/03/29 05:38:03;;;;;;;15.30;11.03;;;10.10;65.10;;;;;;5017275;28;20540;-50
2022/03/29 05:40:31;;;;;;;12.60;9.70;;;10.20;64.80;;;;;;5017151;28;20463;-50
2022/03/29 05:42:59;;;;;;;13.87;10.63;;;10.20;64.40;;;;;;5016279;28;20953;-50
2022/03/29 05:45:28;;;;;;;14.30;11.30;;;10.20;65.40;;;;;;5016450;28;20534;-49
2022/03/29 05:50:40;;;;;;;13.73;11.13;;;10.30;64.60;;;;;;5016448;28;20555;-50
2022/03/29 05:53:07;;;;;;;17.40;11.63;;;10.30;65.10;;;;;;5016412;28;20451;-52
2022/03/29 05:55:35;;;;;;;13.80;11.67;;;10.40;65.40;;;;;;5016306;28;20450;-50
2022/03/29 05:58:03;;;;;;;16.20;10.73;;;10.40;65.50;;;;;;5016398;28;20555;-50
2022/03/29 06:00:31;;;;;;;19.93;11.70;;;10.50;65.50;;;;;;5016490;28;20447;-50
2022/03/29 06:02:59;;;;;;;17.73;12.53;;;10.60;64.60;;;;;;5016083;28;20505;-49
2022/03/29 06:05:26;;;;;;;14.10;11.33;;;10.50;64.50;;;;;;5016031;28;20539;-50
2022/03/29 06:07:54;;;;;;;16.13;11.50;;;10.60;65.50;;;;;;5016342;28;20518;-50
2022/03/29 06:10:21;;;;;;;13.27;11.13;;;10.70;65.70;;;;;;5016014;28;20483;-51
2022/03/29 06:12:48;;;;;;;13.37;10.93;;;10.70;65.90;;;;;;5015868;28;20447;-50
2022/03/29 06:15:17;;;;;;;18.03;12.70;;;10.80;66.20;;;;;;5015773;28;20451;-50
2022/03/29 06:17:44;;;;;;;17.43;11.50;;;10.90;65.10;;;;;;5016193;28;20473;-50
2022/03/29 06:20:12;;;;;;;16.00;11.63;;;10.90;67.40;;;;;;5016206;28;20469;-51
2022/03/29 06:22:43;;;;;;;16.50;11.37;;;11.00;66.80;;;;;;5015630;28;20450;-50
2022/03/29 06:25:11;;;;;;;22.73;12.57;;;11.10;67.30;;;;;;5015551;28;20427;-51
2022/03/29 06:27:39;;;;;;;19.27;13.23;;;11.20;65.80;;;;;;5015608;28;20466;-51
2022/03/29 06:30:08;;;;;;;22.33;13.33;;;11.10;63.40;;;;;;5015471;28;20485;-50
2022/03/29 06:32:46;;;;;;;19.63;12.27;;;11.10;63.90;;;;;;5015551;28;20937;-50
2022/03/29 06:35:13;;;;;;;22.50;13.43;;;11.20;64.70;;;;;;5015691;28;20558;-50
2022/03/29 06:37:40;;;;;;;18.67;12.47;;;11.30;63.50;;;;;;5015623;28;20475;-50
2022/03/29 06:40:09;;;;;;;20.50;12.77;;;11.40;63.60;;;;;;5015348;28;20447;-50
2022/03/29 06:42:36;;;;;;;17.30;12.23;;;11.40;61.60;;;;;;5015174;28;20457;-50
2022/03/29 06:45:04;;;;;;;17.27;13.50;;;11.40;61.60;;;;;;5015583;28;20546;-50
2022/03/29 06:47:37;;;;;;;24.40;15.30;;;11.40;61.80;;;;;;5014826;28;20553;-50
2022/03/29 06:50:07;;;;;;;17.67;13.00;;;11.40;61.10;;;;;;5015094;28;20482;-51
2022/03/29 06:52:36;;;;;;;18.60;12.23;;;11.40;61.20;;;;;;5015207;28;20450;-50
2022/03/29 06:55:04;;;;;;;16.80;12.43;;;11.50;60.70;;;;;;5015403;28;20827;-50
2022/03/29 06:57:31;;;;;;;23.83;12.93;;;11.70;61.70;;;;;;5015249;28;20467;-50
2022/03/29 06:59:59;;;;;;;19.33;13.87;;;11.90;61.50;;;;;;5015019;28;20449;-50
2022/03/29 07:02:26;;;;;;;19.30;13.90;;;11.90;59.70;;;;;;5015315;28;20447;-50
2022/03/29 07:04:55;;;;;;;18.10;12.37;;;11.90;59.70;;;;;;5015135;28;20447;-50
2022/03/29 07:07:22;;;;;;;22.87;13.77;;;11.80;59.60;;;;;;5014964;28;20479;-51
2022/03/29 07:12:47;;;;;;;19.03;13.80;;;11.80;60.10;;;;;;5015200;28;20410;-50
2022/03/29 07:15:15;;;;;;;24.53;13.23;;;11.80;60.30;;;;;;5014890;28;20906;-53
2022/03/29 07:17:42;;;;;;;26.40;13.80;;;11.90;60.70;;;;;;5014855;28;20480;-50
2022/03/29 07:20:12;;;;;;;18.97;13.40;;;11.90;60.00;;;;;;5014798;28;20532;-50
2022/03/29 07:22:39;;;;;;;23.03;12.57;;;12.00;60.10;;;;;;5014544;28;20945;-52
2022/03/29 07:25:07;;;;;;;21.67;13.50;;;12.10;60.70;;;;;;5014229;28;20451;-50
2022/03/29 07:27:34;;;;;;;25.37;12.90;;;12.40;61.80;;;;;;5014549;28;20471;-50
2022/03/29 07:30:03;;;;;;;18.17;13.53;;;12.40;61.10;;;;;;5014375;28;20475;-50
2022/03/29 07:32:32;;;;;;;24.80;14.07;;;12.60;60.90;;;;;;5014120;28;20455;-50
2022/03/29 07:34:59;;;;;;;23.57;14.13;;;12.60;59.90;;;;;;5014460;28;20866;-50
2022/03/29 07:37:28;;;;;;;20.47;14.97;;;12.60;59.20;;;;;;5014715;28;20517;-50
2022/03/29 07:39:55;;;;;;;18.87;12.80;;;12.60;59.40;;;;;;5014111;28;20491;-50
2022/03/29 07:42:24;;;;;;;21.20;12.77;;;12.60;59.30;;;;;;5013735;28;20474;-51
2022/03/29 07:44:51;;;;;;;19.70;14.10;;;12.70;58.90;;;;;;5013860;28;20455;-51
2022/03/29 07:47:19;;;;;;;23.20;14.37;;;12.90;59.40;;;;;;5014110;28;20467;-51
2022/03/29 07:49:50;;;;;;;19.17;13.50;;;13.00;58.80;;;;;;5014046;28;20483;-50
2022/03/29 07:52:18;;;;;;;22.73;14.67;;;12.90;58.40;;;;;;5014216;28;20485;-51
2022/03/29 07:54:46;;;;;;;20.40;13.43;;;12.90;58.50;;;;;;5014296;28;20451;-50
2022/03/29 07:57:14;;;;;;;21.17;13.50;;;13.00;58.20;;;;;;5013830;28;20558;-50
2022/03/29 07:59:41;;;;;;;19.30;14.40;;;12.90;58.10;;;;;;5013477;28;20521;-51
2022/03/29 08:02:09;;;;;;;20.80;14.47;;;13.10;58.10;;;;;;5014261;28;20487;-51
2022/03/29 08:04:36;;;;;;;34.10;12.50;;;13.20;58.80;;;;;;5013858;28;20817;-51
2022/03/29 08:07:04;;;;;;;21.10;15.27;;;13.40;58.30;;;;;;5014068;28;20994;-50
2022/03/29 08:09:31;;;;;;;21.90;13.93;;;13.70;59.50;;;;;;5013533;28;20898;-50
2022/03/29 08:11:59;;;;;;;19.57;13.63;;;13.70;58.80;;;;;;5013864;28;20466;-51
2022/03/29 08:14:26;;;;;;;24.43;15.27;;;13.70;58.20;;;;;;5013985;28;20447;-51
2022/03/29 08:16:55;;;;;;;16.47;13.33;;;13.80;59.40;;;;;;5013922;28;20546;-50
2022/03/29 08:19:22;;;;;;;20.77;14.30;;;14.00;59.10;;;;;;5014033;28;20447;-50
2022/03/29 08:21:50;;;;;;;21.20;14.40;;;13.90;58.40;;;;;;5013656;28;20455;-50
2022/03/29 08:24:18;;;;;;;21.70;15.00;;;14.00;58.40;;;;;;5013624;28;20517;-50
2022/03/29 08:26:46;;;;;;;27.23;15.17;;;14.10;58.90;;;;;;5013927;28;20521;-50
2022/03/29 08:29:16;;;;;;;21.30;14.80;;;14.10;58.80;;;;;;5013399;28;20482;-50
2022/03/29 08:31:44;;;;;;;22.43;14.70;;;14.30;58.60;;;;;;5013299;28;20965;-51
2022/03/29 08:34:11;;;;;;;26.17;14.90;;;14.20;57.50;;;;;;5013729;28;20542;-51
2022/03/29 08:36:39;;;;;;;23.47;14.30;;;14.30;57.20;;;;;;5013588;28;20465;-51
2022/03/29 08:39:07;;;;;;;31.03;16.30;;;14.50;58.50;;;;;;5013535;28;20463;-51
2022/03/29 08:41:37;;;;;;;37.80;15.67;;;14.60;57.90;;;;;;5013720;28;20447;-51
2022/03/29 08:44:06;;;;;;;28.27;14.47;;;14.80;58.70;;;;;;5013624;28;20435;-51
2022/03/29 08:46:38;;;;;;;30.27;15.47;;;14.90;57.70;;;;;;5013181;28;20509;-50
2022/03/29 08:49:06;;;;;;;24.30;14.83;;;14.80;56.90;;;;;;5013209;28;20474;-50
2022/03/29 08:51:33;;;;;;;32.70;16.20;;;14.80;57.20;;;;;;5013227;28;20794;-51
2022/03/29 08:54:00;;;;;;;23.10;16.17;;;15.00;56.80;;;;;;5012913;28;20870;-50
2022/03/29 08:56:27;;;;;;;22.30;14.80;;;15.00;57.70;;;;;;5013567;28;20538;-50
2022/03/29 08:58:56;;;;;;;22.30;13.53;;;15.20;57.20;;;;;;5013258;28;20475;-50
2022/03/29 09:01:24;;;;;;;26.17;14.60;;;15.10;57.00;;;;;;5013218;28;20502;-50
2022/03/29 09:04:09;;;;;;;27.70;16.93;;;15.00;57.30;;;;;;5013064;28;21041;-50
2022/03/29 09:06:56;;;;;;;21.57;14.27;;;15.00;57.00;;;;;;5012959;28;20461;-50
2022/03/29 09:09:24;;;;;;;31.50;14.87;;;15.40;57.60;;;;;;5013111;28;20580;-50
2022/03/29 09:11:53;;;;;;;25.70;14.63;;;15.60;56.80;;;;;;5017564;28;20458;-50
2022/03/29 09:14:21;;;;;;;23.53;16.60;;;15.60;56.00;;;;;;5017513;28;20458;-50
2022/03/29 09:16:51;;;;;;;23.83;15.90;;;15.60;56.30;;;;;;5016999;28;20876;-50
2022/03/29 09:19:21;;;;;;;34.17;15.03;;;15.50;55.90;;;;;;5016863;28;20949;-50
2022/03/29 09:21:49;;;;;;;23.80;16.83;;;15.50;55.90;;;;;;5017496;28;20439;-50
2022/03/29 09:24:18;;;;;;;19.10;14.07;;;15.70;56.20;;;;;;5016789;28;20538;-50
2022/03/29 09:26:47;;;;;;;25.63;16.03;;;15.90;55.60;;;;;;5016754;28;20894;-50
2022/03/29 09:29:16;;;;;;;21.03;15.03;;;16.00;55.20;;;;;;5016867;28;20479;-50
2022/03/29 09:31:44;;;;;;;26.63;13.90;;;15.90;54.30;;;;;;5016527;28;20541;-50
2022/03/29 09:34:13;;;;;;;23.47;15.33;;;16.20;54.90;;;;;;5016715;28;20447;-50
2022/03/29 09:36:44;;;;;;;22.97;13.80;;;16.50;55.30;;;;;;5016601;28;20489;-50
2022/03/29 09:39:41;;;;;;;22.23;15.33;;;16.50;54.90;;;;;;5016595;28;20463;-50
2022/03/29 09:42:11;;;;;;;21.37;14.73;;;16.90;54.80;;;;;;5016562;28;21026;-52
2022/03/29 09:44:41;;;;;;;24.43;14.30;;;17.30;54.20;;;;;;5016770;28;20457;-51
2022/03/29 09:47:10;;;;;;;22.83;14.90;;;17.80;53.30;;;;;;5016573;28;20537;-51
2022/03/29 09:49:54;;;;;;;18.50;15.00;;;18.00;53.20;;;;;;5015937;28;20486;-51
2022/03/29 09:52:24;;;;;;;25.40;14.30;;;18.40;54.10;;;;;;5016211;28;20457;-51
2022/03/29 09:55:06;;;;;;;23.07;14.17;;;;;;;;;;5016743;28;20792;-52
2022/03/29 09:57:37;;;;;;;17.90;13.87;;;19.00;51.40;;;;;;5016373;28;20506;-52
2022/03/29 10:00:07;;;;;;;25.73;14.17;;;18.80;50.20;;;;;;5015988;28;20443;-51
2022/03/29 10:02:40;;;;;;;17.90;13.93;;;18.80;51.60;;;;;;5015882;28;20887;-51
2022/03/29 10:05:11;;;;;;;16.70;14.17;;;19.00;51.20;;;;;;5016193;28;20515;-51
2022/03/29 10:07:44;;;;;;;17.37;14.60;;;18.30;49.00;;;;;;5016335;28;20489;-51
2022/03/29 10:10:11;;;;;;;19.33;13.67;;;18.00;49.80;;;;;;5015755;28;20518;-51
2022/03/29 10:12:39;;;;;;;20.73;14.20;;;18.10;49.20;;;;;;5015784;28;20485;-51
2022/03/29 10:15:08;;;;;;;16.73;13.07;;;18.40;49.60;;;;;;5015944;28;20489;-52
2022/03/29 10:17:35;;;;;;;23.17;15.27;;;19.00;49.30;;;;;;5015813;28;20474;-51
2022/03/29 10:20:06;;;;;;;24.30;14.63;;;19.50;50.00;;;;;;5016185;28;20473;-51
2022/03/29 10:22:36;;;;;;;14.77;12.80;;;19.60;48.80;;;;;;5015327;28;20493;-51
2022/03/29 10:25:06;;;;;;;20.00;14.53;;;19.30;48.80;;;;;;5016142;28;20440;-52
2022/03/29 10:27:33;;;;;;;18.13;14.83;;;19.60;49.50;;;;;;5015623;28;20471;-51
2022/03/29 10:30:01;;;;;;;20.13;13.07;;;19.30;49.10;;;;;;5015565;28;20489;-52
2022/03/29 10:32:31;;;;;;;17.00;14.37;;;19.10;48.10;;;;;;5015795;28;20481;-51
2022/03/29 10:35:09;;;;;;;19.10;14.60;;;19.20;48.50;;;;;;5015458;28;20451;-51
2022/03/29 10:37:54;;;;;;;17.20;14.20;;;19.00;48.50;;;;;;5015554;28;20480;-52
2022/03/29 10:40:41;;;;;;;17.63;12.70;;;18.90;49.70;;;;;;5015709;28;20447;-52
2022/03/29 10:43:35;;;;;;;20.93;14.23;;;19.10;50.00;;;;;;5015284;28;20431;-52
2022/03/29 10:46:23;;;;;;;18.33;14.43;;;19.50;48.00;;;;;;4991583;28;20455;-52
2022/03/29 10:49:20;;;;;;;17.37;13.57;;;19.40;48.20;;;;;;5015581;28;20573;-52
2022/03/29 10:51:50;;;;;;;20.70;14.43;;;20.10;48.20;;;;;;5015648;28;20515;-52
2022/03/29 10:54:32;;;;;;;18.17;13.87;;;20.10;48.50;;;;;;5015383;28;20428;-52
2022/03/29 10:57:03;;;;;;;19.73;14.00;;;19.70;48.70;;;;;;5015113;28;20545;-51
2022/03/29 10:59:31;;;;;;;20.37;14.60;;;19.50;48.40;;;;;;5015167;28;20450;-51
2022/03/29 11:02:09;;;;;;;17.97;14.03;;;;;;;;;;5014946;28;20473;-51
2022/03/29 11:04:37;;;;;;;22.63;14.90;;;19.10;49.10;;;;;;5014835;28;20450;-51
2022/03/29 11:07:14;;;;;;;18.73;14.53;;;18.90;49.70;;;;;;5014699;28;20977;-51
2022/03/29 11:09:46;;;;;;;21.23;15.50;;;18.70;49.40;;;;;;5014527;28;20489;-51
2022/03/29 11:12:40;;;;;;;22.40;13.40;;;19.00;49.90;;;;;;5014445;28;20523;-51
2022/03/29 11:15:47;;;;;;;17.00;13.40;;;19.50;49.30;;;;;;5014340;28;20479;-51
2022/03/29 11:18:42;;;;;;;22.83;14.30;;;19.60;48.60;;;;;;5014459;28;20463;-51
2022/03/29 11:21:09;;;;;;;25.33;14.40;;;19.90;48.40;;;;;;5014359;28;20497;-51
2022/03/29 11:23:40;;;;;;;26.37;16.03;;;19.90;48.70;;;;;;5014101;28;20463;-51
2022/03/29 11:26:10;;;;;;;18.10;14.87;;;;;;;;;;5013847;28;20451;-51
2022/03/29 11:28:47;;;;;;;25.40;15.73;;;20.60;47.50;;;;;;5014429;28;20471;-52
2022/03/29 11:31:14;;;;;;;29.93;18.53;;;21.10;47.80;;;;;;5014345;28;20478;-52
2022/03/29 11:33:43;;;;;;;22.70;14.60;;;20.80;46.40;;;;;;5013792;28;20478;-52
2022/03/29 11:36:11;;;;;;;21.30;14.87;;;20.90;47.40;;;;;;5014106;28;20546;-51
2022/03/29 11:38:38;;;;;;;26.43;16.70;;;20.90;47.20;;;;;;5014700;28;20971;-51
2022/03/29 11:41:06;;;;;;;27.77;14.83;;;20.70;47.80;;;;;;5014515;28;20443;-51
2022/03/29 11:43:33;;;;;;;18.93;14.07;;;21.00;48.10;;;;;;5014331;28;20517;-52
2022/03/29 11:46:02;;;;;;;26.57;15.13;;;21.20;48.00;;;;;;5014071;28;20509;-51
2022/03/29 11:48:29;;;;;;;22.77;15.87;;;21.00;46.10;;;;;;5014061;28;20502;-52
2022/03/29 11:50:59;;;;;;;21.67;15.60;;;20.60;46.70;;;;;;5013818;28;20487;-52
2022/03/29 11:53:28;;;;;;;24.27;14.60;;;20.50;46.30;;;;;;5013936;28;20454;-52
2022/03/29 11:55:57;;;;;;;23.77;16.20;;;20.80;47.50;;;;;;5014115;28;20823;-51
2022/03/29 11:58:25;;;;;;;20.50;14.73;;;20.80;46.90;;;;;;5013502;28;20977;-51
2022/03/29 12:00:52;;;;;;;26.67;17.33;;;20.30;46.80;;;;;;5013757;28;20558;-51
2022/03/29 12:03:34;;;;;;;19.77;13.47;;;20.20;47.40;;;;;;5014115;28;20505;-51
2022/03/29 12:06:05;;;;;;;23.70;14.40;;;20.30;47.20;;;;;;5013861;28;20431;-51
2022/03/29 12:08:51;;;;;;;23.17;15.03;;;20.40;46.30;;;;;;5013830;28;20482;-52
2022/03/29 12:11:20;;;;;;;16.47;14.37;;;20.00;47.20;;;;;;5013818;28;20491;-52
2022/03/29 12:13:48;;;;;;;21.57;14.80;;;20.00;46.80;;;;;;5013742;28;20863;-52
2022/03/29 12:16:23;;;;;;;22.90;15.30;;;19.90;51.90;;;;;;5013777;28;20948;-52
2022/03/29 12:18:52;;;;;;;21.53;14.83;;;20.20;52.90;;;;;;5013994;28;20466;-51
2022/03/29 12:21:21;;;;;;;18.87;15.00;;;20.50;53.40;;;;;;5013586;28;20946;-52
2022/03/29 12:23:49;;;;;;;18.50;15.27;;;20.70;58.70;;;;;;5013652;28;20537;-52
2022/03/29 12:26:20;;;;;;;23.97;15.60;;;20.30;46.10;;;;;;5013460;28;20496;-51
2022/03/29 12:28:47;;;;;;;20.33;14.93;;;20.10;50.10;;;;;;5013494;28;20546;-51
2022/03/29 12:31:17;;;;;;;21.70;14.33;;;20.10;50.10;;;;;;5013204;28;20489;-51
2022/03/29 12:33:45;;;;;;;20.37;15.13;;;20.20;49.10;;;;;;5013587;28;20447;-51
2022/03/29 12:36:17;;;;;;;21.17;14.20;;;20.10;49.40;;;;;;5013411;28;20457;-52
2022/03/29 12:38:47;;;;;;;21.83;14.40;;;20.10;48.60;;;;;;5013047;28;20467;-51
2022/03/29 12:41:16;;;;;;;19.30;15.63;;;20.10;47.60;;;;;;5013158;28;20602;-52
2022/03/29 12:43:53;;;;;;;19.53;13.30;;;20.10;47.30;;;;;;5012935;28;20842;-51
2022/03/29 12:46:22;;;;;;;22.77;15.77;;;20.10;47.50;;;;;;5012739;28;20799;-52
2022/03/29 12:48:49;;;;;;;18.43;15.30;;;20.20;46.40;;;;;;5012927;28;20477;-52